Time;durP1;ratioP1;P1;durP2;ratioP2;P2;SDS_P1;SDS_P2;PMS_P1;PMS_P2;Temp;Humidity;BMP_temperature;BMP_pressure;BME280_temperature;BME280_humidity;BME280_pressure;Samples;Min_cycle;Max_cycle;Signal;HPM_P1;HPM_P2
2022/05/31 00:00:22;;;;;;;1.38;1.27;;;;;;;11.95;64.79;101570.09;4999365;28;20037;-46
2022/05/31 00:02:49;;;;;;;4.80;1.48;;;;;;;11.94;65.11;101562.28;5001131;28;20026;-45
2022/05/31 00:05:16;;;;;;;2.28;1.23;;;;;;;11.92;65.20;101565.22;4997302;28;20044;-44
2022/05/31 00:07:42;;;;;;;3.78;1.35;;;;;;;11.89;65.04;101567.56;4999786;28;20026;-45
2022/05/31 00:10:10;;;;;;;2.35;1.40;;;;;;;11.90;65.12;101566.50;4998061;28;20109;-44
2022/05/31 00:12:36;;;;;;;3.10;1.30;;;;;;;11.90;64.86;101561.13;5000015;28;20053;-44
2022/05/31 00:15:03;;;;;;;1.95;1.30;;;;;;;11.90;65.24;101563.81;5000776;28;20038;-45
2022/05/31 00:17:29;;;;;;;2.55;1.23;;;;;;;11.92;65.07;101572.44;4999476;28;20037;-46
2022/05/31 00:19:54;;;;;;;3.95;1.30;;;;;;;11.89;64.96;101572.94;5000060;28;20399;-44
2022/05/31 00:22:24;;;;;;;1.65;1.40;;;;;;;11.85;65.12;101577.13;5000576;28;20113;-44
2022/05/31 00:24:50;;;;;;;3.22;1.40;;;;;;;11.82;65.32;101573.03;4995551;28;20527;-45
2022/05/31 00:27:19;;;;;;;2.63;1.60;;;;;;;11.82;64.91;101577.59;4992241;28;20038;-44
2022/05/31 00:29:47;;;;;;;2.15;1.35;;;;;;;11.79;65.07;101563.59;4997435;28;20157;-47
2022/05/31 00:32:14;;;;;;;2.95;1.42;;;;;;;11.77;64.96;101565.66;4995163;28;20022;-45
2022/05/31 00:34:43;;;;;;;1.33;1.23;;;;;;;11.76;64.78;101569.41;4998752;28;20034;-45
2022/05/31 00:37:09;;;;;;;1.55;1.25;;;;;;;11.74;65.03;101571.50;5000318;28;20124;-45
2022/05/31 00:39:35;;;;;;;1.63;1.33;;;;;;;11.72;65.29;101579.00;4992846;28;20088;-46
2022/05/31 00:42:06;;;;;;;4.15;1.60;;;;;;;11.69;65.51;101576.78;5000522;28;21524;-44
2022/05/31 00:44:33;;;;;;;3.10;1.40;;;;;;;11.68;65.69;101577.84;4982163;28;21442;-46
2022/05/31 00:47:02;;;;;;;1.48;1.30;;;;;;;11.66;65.46;101573.72;4979951;28;20039;-45
2022/05/31 00:49:38;;;;;;;2.58;1.58;;;;;;;11.64;65.32;101571.28;4989800;28;20034;-45
2022/05/31 00:52:13;;;;;;;2.10;1.20;;;;;;;11.58;65.52;101580.28;5001061;28;20021;-45
2022/05/31 00:54:43;;;;;;;;;;;;;;;11.46;66.09;101577.59;4995092;28;20053;-44
2022/05/31 00:57:10;;;;;;;4.18;1.35;;;;;;;11.53;65.84;101576.66;4994298;28;19917;-44
2022/05/31 00:59:40;;;;;;;2.75;1.50;;;;;;;11.51;65.40;101584.97;4999687;28;20438;-46
2022/05/31 01:02:06;;;;;;;3.45;1.73;;;;;;;11.47;65.55;101575.72;4997948;28;20026;-45
2022/05/31 01:04:53;;;;;;;4.03;1.40;;;;;;;11.37;65.68;101579.00;4998429;28;20030;-44
2022/05/31 01:07:19;;;;;;;1.60;1.50;;;;;;;11.34;65.56;101589.38;4978502;28;20057;-44
2022/05/31 01:09:45;;;;;;;2.67;1.73;;;;;;;11.31;65.63;101585.31;4979645;28;20120;-46
2022/05/31 01:12:13;;;;;;;2.38;1.73;;;;;;;11.29;65.91;101595.44;4979112;28;20546;-49
2022/05/31 01:14:41;;;;;;;2.53;1.33;;;;;;;11.23;65.69;101588.31;4994559;28;20026;-46
2022/05/31 01:17:09;;;;;;;1.77;1.30;;;;;;;11.17;66.23;101598.13;5004310;28;20356;-44
2022/05/31 01:22:19;;;;;;;2.72;1.27;;;;;;;11.11;65.87;101595.53;5001260;28;20135;-44
2022/05/31 01:24:59;;;;;;;1.75;1.25;;;;;;;11.05;65.80;101596.44;5002388;28;20476;-45
2022/05/31 01:27:32;;;;;;;2.85;1.40;;;;;;;11.00;65.62;101597.16;4999108;28;20025;-45
2022/05/31 01:30:00;;;;;;;4.80;1.52;;;;;;;10.93;65.66;101596.41;5002012;28;20420;-47
2022/05/31 01:32:25;;;;;;;1.33;1.23;;;;;;;10.89;65.56;101600.59;5001276;28;20038;-46
2022/05/31 01:35:08;;;;;;;1.88;1.30;;;;;;;10.83;65.81;101599.66;5000300;28;20033;-45
2022/05/31 01:37:57;;;;;;;1.73;1.30;;;;;;;10.73;65.62;101599.38;5000694;28;20033;-45
2022/05/31 01:40:47;;;;;;;4.28;1.40;;;;;;;10.71;65.76;101593.44;5002886;28;20065;-46
2022/05/31 01:43:13;;;;;;;1.23;1.13;;;;;;;10.72;65.79;101594.25;5002581;28;20025;-45
2022/05/31 01:45:55;;;;;;;3.05;1.65;;;;;;;10.66;65.61;101592.50;5003244;28;20033;-45
2022/05/31 01:48:21;;;;;;;4.43;1.48;;;;;;;10.58;65.50;101597.13;5000904;28;20037;-46
2022/05/31 01:50:47;;;;;;;3.65;1.85;;;;;;;10.54;65.79;101590.59;5003848;28;20033;-45
2022/05/31 01:53:15;;;;;;;2.60;1.50;;;;;;;10.53;66.04;101591.63;4996915;28;20432;-44
2022/05/31 01:55:43;;;;;;;2.03;1.42;;;;;;;10.55;65.58;101594.91;5001818;28;20171;-45
2022/05/31 01:58:17;;;;;;;3.38;1.38;;;;;;;10.52;65.81;101590.00;5002139;28;20040;-45
2022/05/31 02:00:43;;;;;;;2.38;1.65;;;;;;;10.53;65.78;101598.84;5000818;28;20029;-45
2022/05/31 02:03:10;;;;;;;1.85;1.30;;;;;;;10.52;65.69;101595.34;5002840;28;20483;-45
2022/05/31 02:05:35;;;;;;;3.35;1.60;;;;;;;10.52;65.82;101595.34;5002446;28;20150;-45
2022/05/31 02:08:03;;;;;;;3.00;1.75;;;;;;;10.46;66.36;101588.25;4983528;28;20119;-44
2022/05/31 02:10:32;;;;;;;1.75;1.40;;;;;;;10.45;66.39;101594.63;4978912;28;20026;-45
2022/05/31 02:12:58;;;;;;;5.40;1.60;;;;;;;10.44;66.25;101593.00;4981546;28;21064;-45
2022/05/31 02:15:24;;;;;;;2.28;1.67;;;;;;;10.42;66.41;101595.09;4981617;28;20034;-45
2022/05/31 02:17:50;;;;;;;5.40;2.20;;;;;;;10.40;66.37;101597.16;4985513;28;20509;-47
2022/05/31 02:20:16;;;;;;;3.75;1.90;;;;;;;10.37;66.59;101594.94;4982733;28;20042;-45
2022/05/31 02:22:41;;;;;;;6.20;1.92;;;;;;;10.34;66.98;101599.94;5001335;28;20034;-46
2022/05/31 02:25:08;;;;;;;1.70;1.60;;;;;;;10.30;66.83;101588.84;4997930;28;20058;-44
2022/05/31 02:27:34;;;;;;;4.90;1.58;;;;;;;10.29;67.12;101589.91;5001264;28;20073;-47
2022/05/31 02:30:01;;;;;;;3.92;1.80;;;;;;;10.27;67.41;101592.81;5000809;28;20108;-44
2022/05/31 02:32:26;;;;;;;5.13;1.58;;;;;;;10.32;67.39;101597.47;4999945;28;20018;-44
2022/05/31 02:34:53;;;;;;;2.88;1.80;;;;;;;10.31;67.33;101598.53;4995766;28;20088;-45
2022/05/31 02:37:19;;;;;;;2.30;1.50;;;;;;;10.33;67.58;101595.63;5003049;28;20034;-45
2022/05/31 02:39:45;;;;;;;1.67;1.50;;;;;;;10.35;67.25;101604.25;5004979;28;20096;-45
2022/05/31 02:42:12;;;;;;;2.90;1.58;;;;;;;10.36;66.96;101595.16;5001428;28;20023;-44
2022/05/31 02:44:38;;;;;;;2.45;1.45;;;;;;;10.41;66.99;101597.97;4998843;28;20748;-44
2022/05/31 02:47:05;;;;;;;2.10;1.40;;;;;;;10.37;67.37;101597.63;5001683;28;20475;-45
2022/05/31 02:49:31;;;;;;;2.97;1.65;;;;;;;10.36;67.30;101590.63;4998426;28;20029;-45
2022/05/31 02:51:59;;;;;;;3.35;1.60;;;;;;;10.35;67.24;101597.03;5003152;28;20065;-44
2022/05/31 02:54:25;;;;;;;1.95;1.67;;;;;;;10.39;67.13;101594.72;4994734;28;20685;-46
2022/05/31 02:56:51;;;;;;;1.85;1.67;;;;;;;10.36;67.88;101587.94;4982801;28;20117;-44
2022/05/31 02:59:16;;;;;;;2.60;1.48;;;;;;;10.39;67.57;101600.88;4986845;28;20395;-45
2022/05/31 03:01:43;;;;;;;1.92;1.50;;;;;;;10.39;67.75;101590.16;4998103;28;20033;-46
2022/05/31 03:04:10;;;;;;;2.75;1.58;;;;;;;10.40;67.61;101602.50;5000870;28;20061;-44
2022/05/31 03:06:37;;;;;;;4.88;2.05;;;;;;;10.41;68.10;101596.16;5001538;28;20033;-44
2022/05/31 03:09:04;;;;;;;4.47;1.95;;;;;;;10.40;67.80;101589.13;5002570;28;20029;-45
2022/05/31 03:11:39;;;;;;;2.47;1.98;;;;;;;10.37;68.63;101586.09;5000549;28;20116;-45
2022/05/31 03:14:04;;;;;;;;;;;;;;;10.29;68.43;101589.91;4999334;28;20463;-45
2022/05/31 03:16:31;;;;;;;1.95;1.67;;;;;;;10.33;68.46;101591.09;4998504;28;19972;-47
2022/05/31 03:19:03;;;;;;;3.20;2.15;;;;;;;10.34;68.41;101592.72;4999677;28;20022;-45
2022/05/31 03:21:51;;;;;;;5.03;2.10;;;;;;;10.34;69.25;101589.22;5003921;28;20096;-45
2022/05/31 03:24:20;;;;;;;6.50;1.95;;;;;;;10.40;68.66;101594.47;5000591;28;20124;-48
2022/05/31 03:26:47;;;;;;;3.33;2.40;;;;;;;10.42;68.45;101588.94;5000620;28;20057;-46
2022/05/31 03:29:13;;;;;;;4.00;2.25;;;;;;;10.44;68.56;101598.38;5001607;28;20030;-45
2022/05/31 03:31:39;;;;;;;3.28;2.10;;;;;;;10.50;68.58;101594.78;5001127;28;20126;-46
2022/05/31 03:34:05;;;;;;;3.22;2.38;;;;;;;10.50;69.02;101600.13;4995564;28;20120;-45
2022/05/31 03:36:31;;;;;;;3.40;2.17;;;;;;;10.53;68.93;101593.50;5001522;28;20026;-46
2022/05/31 03:38:57;;;;;;;2.92;2.15;;;;;;;10.55;69.09;101600.25;5006048;28;20391;-44
2022/05/31 03:41:22;;;;;;;6.72;1.92;;;;;;;10.56;70.08;101601.88;5006638;28;20080;-47
2022/05/31 03:43:48;;;;;;;4.00;2.40;;;;;;;10.56;69.75;101603.75;5003381;28;20022;-45
2022/05/31 03:46:15;;;;;;;3.92;1.95;;;;;;;10.60;69.53;101604.97;5002292;28;20059;-45
2022/05/31 03:48:41;;;;;;;3.47;1.92;;;;;;;10.64;69.42;101610.69;4999798;28;20121;-44
2022/05/31 03:51:09;;;;;;;4.93;2.17;;;;;;;10.63;70.13;101609.03;5004514;28;20102;-47
2022/05/31 03:53:35;;;;;;;2.55;2.25;;;;;;;10.59;71.09;101605.97;5005687;28;20575;-46
2022/05/31 03:56:03;;;;;;;3.05;2.30;;;;;;;10.52;71.90;101600.72;5002403;28;20082;-45
2022/05/31 03:58:29;;;;;;;3.72;2.20;;;;;;;10.48;72.51;101610.25;5001394;28;20116;-45
2022/05/31 04:00:54;;;;;;;4.50;2.60;;;;;;;10.49;72.76;101606.53;5002855;28;20108;-45
2022/05/31 04:03:20;;;;;;;3.67;2.50;;;;;;;10.51;72.86;101612.47;5002582;28;20044;-46
2022/05/31 04:05:46;;;;;;;3.28;2.33;;;;;;;10.58;72.26;101605.16;5001666;28;20022;-45
2022/05/31 04:08:12;;;;;;;3.38;3.00;;;;;;;10.60;72.63;101607.63;5001927;28;20373;-45
2022/05/31 04:10:40;;;;;;;3.80;2.90;;;;;;;10.59;72.93;101605.97;5003981;28;20034;-46
2022/05/31 04:13:07;;;;;;;6.47;2.95;;;;;;;10.57;72.79;101614.25;5004278;28;20022;-46
2022/05/31 04:15:35;;;;;;;5.82;3.25;;;;;;;10.60;73.25;101623.72;5000904;28;20094;-45
2022/05/31 04:18:02;;;;;;;4.88;3.42;;;;;;;10.58;73.45;101620.41;5003098;28;20391;-46
2022/05/31 04:20:28;;;;;;;4.47;2.80;;;;;;;10.57;73.67;101622.28;5003208;28;20038;-46
2022/05/31 04:23:57;;;;;;;6.30;3.40;;;;;;;10.56;73.84;101623.34;5006189;28;20046;-45
2022/05/31 04:25:39;;;;;;;4.88;3.88;;;;;;;10.55;74.49;101632.41;5003258;28;20041;-44
2022/05/31 04:28:05;;;;;;;4.72;3.50;;;;;;;10.58;74.31;101625.78;5003926;28;20491;-45
2022/05/31 04:30:30;;;;;;;7.28;3.53;;;;;;;10.60;74.65;101623.72;5002882;28;20104;-46
2022/05/31 04:32:56;;;;;;;6.07;3.38;;;;;;;10.63;74.37;101623.25;5002595;28;20104;-45
2022/05/31 04:35:21;;;;;;;4.60;3.50;;;;;;;10.64;74.99;101630.25;5001102;28;20029;-45
2022/05/31 04:37:47;;;;;;;4.03;3.15;;;;;;;10.67;75.19;101631.66;5002308;28;20124;-45
2022/05/31 04:40:13;;;;;;;5.60;2.97;;;;;;;10.72;75.01;101623.75;4986991;28;20030;-45
2022/05/31 04:42:39;;;;;;;6.05;3.80;;;;;;;10.76;75.04;101630.28;5003323;28;20061;-45
2022/05/31 04:45:05;;;;;;;5.18;3.50;;;;;;;10.80;74.88;101629.63;5002915;28;20048;-44
2022/05/31 04:47:31;;;;;;;5.53;3.17;;;;;;;10.86;74.73;101627.88;5004766;28;20452;-45
2022/05/31 04:49:57;;;;;;;3.72;2.72;;;;;;;10.90;74.82;101629.06;5007261;28;20057;-45
2022/05/31 04:52:23;;;;;;;6.15;3.33;;;;;;;10.93;74.61;101628.59;5009048;28;20019;-45
2022/05/31 04:54:48;;;;;;;4.65;3.33;;;;;;;10.99;74.61;101637.59;5012174;28;20435;-44
2022/05/31 04:57:14;;;;;;;3.45;3.08;;;;;;;11.04;74.49;101641.22;5004954;28;20042;-44
2022/05/31 04:59:39;;;;;;;5.65;3.20;;;;;;;11.07;74.58;101630.03;5007677;28;20055;-45
2022/05/31 05:02:04;;;;;;;4.60;3.70;;;;;;;11.10;74.66;101640.28;5002636;28;20775;-45
2022/05/31 05:04:30;;;;;;;4.60;3.20;;;;;;;11.13;74.72;101631.81;5005990;28;20029;-45
2022/05/31 05:06:57;;;;;;;4.40;3.28;;;;;;;11.19;74.82;101638.13;5004306;28;20030;-46
2022/05/31 05:09:22;;;;;;;5.72;3.10;;;;;;;11.19;75.20;101638.94;4997799;28;20029;-44
2022/05/31 05:11:47;;;;;;;5.05;3.30;;;;;;;11.26;74.70;101633.44;5009092;28;20028;-45
2022/05/31 05:14:13;;;;;;;5.20;3.45;;;;;;;11.29;74.46;101632.16;5004287;28;20496;-46
2022/05/31 05:16:39;;;;;;;9.32;3.38;;;;;;;11.34;74.05;101635.81;4994328;28;20092;-47
2022/05/31 05:19:04;;;;;;;5.28;2.92;;;;;;;11.38;74.21;101636.97;5003890;28;20032;-45
2022/05/31 05:21:30;;;;;;;9.20;3.10;;;;;;;11.43;74.00;101636.28;5006245;28;20034;-44
2022/05/31 05:23:56;;;;;;;14.75;3.60;;;;;;;11.47;73.60;101634.75;5005979;28;20569;-45
2022/05/31 05:26:21;;;;;;;8.65;3.25;;;;;;;11.55;73.31;101634.44;5005355;28;20034;-45
2022/05/31 05:31:35;;;;;;;14.33;3.30;;;;;;;11.59;72.98;101622.16;5006823;28;20045;-45
2022/05/31 05:34:02;;;;;;;5.80;3.30;;;;;;;11.68;72.69;101626.16;5005872;28;20029;-46
2022/05/31 05:36:29;;;;;;;5.53;2.97;;;;;;;11.74;72.52;101625.22;5000203;28;20026;-44
2022/05/31 05:38:55;;;;;;;7.20;2.85;;;;;;;11.81;72.48;101625.09;4990236;28;21345;-46
2022/05/31 05:41:23;;;;;;;4.07;2.90;;;;;;;11.85;72.09;101622.75;4987724;28;20210;-45
2022/05/31 05:43:48;;;;;;;5.78;2.80;;;;;;;11.88;72.13;101625.00;5004028;28;20025;-45
2022/05/31 05:46:21;;;;;;;6.03;2.88;;;;;;;11.90;71.65;101625.59;5005038;28;20135;-45
2022/05/31 05:48:47;;;;;;;3.05;2.75;;;;;;;11.97;71.79;101623.56;5006010;28;20030;-46
2022/05/31 05:51:19;;;;;;;4.88;2.63;;;;;;;12.06;71.20;101627.56;5005937;28;20050;-45
2022/05/31 05:53:45;;;;;;;6.60;2.72;;;;;;;12.09;71.15;101624.38;5008071;28;20116;-44
2022/05/31 05:56:12;;;;;;;5.38;2.90;;;;;;;12.12;71.18;101636.53;5006671;28;20489;-45
2022/05/31 05:58:38;;;;;;;4.57;2.70;;;;;;;12.20;70.92;101639.66;5007407;28;20506;-45
2022/05/31 06:01:07;;;;;;;5.07;2.80;;;;;;;12.27;70.82;101629.59;5004899;28;20045;-45
2022/05/31 06:03:46;;;;;;;7.00;3.10;;;;;;;12.28;70.52;101641.16;5002411;28;20049;-45
2022/05/31 06:06:14;;;;;;;4.60;3.30;;;;;;;12.31;70.38;101640.69;5007460;28;20144;-45
2022/05/31 06:08:42;;;;;;;5.72;3.13;;;;;;;12.34;70.50;101645.56;5006615;28;20645;-46
2022/05/31 06:11:17;;;;;;;3.95;3.05;;;;;;;12.43;70.18;101646.03;5007455;28;20487;-45
2022/05/31 06:13:49;;;;;;;;;;;;;;;12.42;70.46;101653.28;5008329;28;20037;-45
2022/05/31 06:16:18;;;;;;;7.57;2.53;;;;;;;12.56;70.00;101649.25;5002166;28;19937;-44
2022/05/31 06:18:53;;;;;;;5.38;2.45;;;;;;;12.65;69.47;101647.00;5003410;28;20184;-45
2022/05/31 06:21:23;;;;;;;6.40;3.08;;;;;;;12.75;69.08;101646.38;5007282;28;20041;-44
2022/05/31 06:23:49;;;;;;;5.93;3.03;;;;;;;12.80;69.01;101649.16;5005942;28;20060;-45
2022/05/31 06:26:18;;;;;;;4.25;2.50;;;;;;;12.86;68.43;101645.50;5005732;28;20061;-45
2022/05/31 06:28:44;;;;;;;2.95;2.35;;;;;;;12.92;67.78;101652.59;5008087;28;20515;-46
2022/05/31 06:31:10;;;;;;;7.50;2.28;;;;;;;12.98;67.44;101657.84;5006052;28;20030;-46
2022/05/31 06:33:35;;;;;;;4.60;2.55;;;;;;;13.04;67.27;101655.25;5005806;28;20030;-45
2022/05/31 06:36:02;;;;;;;4.47;1.98;;;;;;;13.15;66.84;101651.69;5007308;28;20034;-46
2022/05/31 06:38:29;;;;;;;4.57;2.47;;;;;;;13.24;66.51;101653.75;5008246;28;20431;-45
2022/05/31 06:40:56;;;;;;;2.67;1.90;;;;;;;13.34;65.90;101650.44;5006841;28;20285;-45
2022/05/31 06:43:23;;;;;;;3.80;2.22;;;;;;;13.43;65.98;101657.00;5002117;28;20025;-45
2022/05/31 06:45:49;;;;;;;3.47;2.13;;;;;;;13.45;65.14;101660.28;5008324;28;20026;-45
2022/05/31 06:48:15;;;;;;;4.25;2.22;;;;;;;13.49;64.51;101650.69;5004741;28;20076;-45
2022/05/31 06:50:41;;;;;;;3.70;2.03;;;;;;;13.57;63.41;101669.09;5005802;28;20092;-45
2022/05/31 06:58:34;;;;;;;3.60;1.60;;;;;;;13.81;62.44;101666.22;5006544;28;20064;-46
2022/05/31 07:01:04;;;;;;;4.00;2.17;;;;;;;13.88;62.20;101672.25;5002725;28;20053;-45
2022/05/31 07:03:30;;;;;;;5.75;2.10;;;;;;;13.96;62.03;101671.00;5004189;28;20034;-45
2022/05/31 07:05:57;;;;;;;5.50;1.85;;;;;;;14.01;62.00;101671.91;5005038;28;20121;-45
2022/05/31 07:08:22;;;;;;;5.35;1.75;;;;;;;14.03;61.59;101668.97;5005623;28;20038;-45
2022/05/31 07:10:48;;;;;;;2.92;1.70;;;;;;;14.09;61.69;101668.78;5007875;28;20022;-44
2022/05/31 07:13:13;;;;;;;5.03;2.10;;;;;;;14.17;61.60;101662.94;5006291;28;20805;-44
2022/05/31 07:15:39;;;;;;;2.97;2.03;;;;;;;14.21;61.18;101661.41;5004769;28;20068;-46
2022/05/31 07:18:05;;;;;;;3.03;2.13;;;;;;;14.30;60.75;101663.66;5006205;28;20045;-44
2022/05/31 07:20:31;;;;;;;2.92;2.08;;;;;;;14.41;60.42;101663.53;5002809;28;20040;-45
2022/05/31 07:22:56;;;;;;;2.88;1.73;;;;;;;14.54;60.21;101662.34;5006863;28;20025;-45
2022/05/31 07:25:22;;;;;;;3.17;1.75;;;;;;;14.70;60.06;101664.16;5004903;28;20030;-45
2022/05/31 07:27:49;;;;;;;2.30;1.77;;;;;;;14.75;59.19;101666.94;5007082;28;20029;-44
2022/05/31 07:30:16;;;;;;;4.55;1.73;;;;;;;14.82;58.69;101667.53;5001378;28;20576;-45
2022/05/31 07:32:42;;;;;;;2.72;1.50;;;;;;;14.97;58.27;101657.97;5000541;28;20026;-45
2022/05/31 07:35:08;;;;;;;2.60;1.63;;;;;;;15.07;57.82;101658.06;5002847;28;20025;-45
2022/05/31 07:37:33;;;;;;;3.88;1.50;;;;;;;15.10;57.17;101658.38;5003091;28;20026;-46
2022/05/31 07:39:59;;;;;;;3.20;1.50;;;;;;;15.20;57.36;101660.34;5002436;28;20064;-45
2022/05/31 07:42:24;;;;;;;2.53;1.63;;;;;;;15.26;57.07;101655.78;5002434;28;20109;-44
2022/05/31 07:44:54;;;;;;;2.60;1.60;;;;;;;15.29;56.31;101663.41;5003134;28;20053;-45
2022/05/31 07:47:20;;;;;;;2.85;1.20;;;;;;;15.40;56.02;101660.50;5004063;28;20028;-46
2022/05/31 07:49:46;;;;;;;2.53;1.33;;;;;;;15.54;55.56;101657.38;5002985;28;20281;-45
2022/05/31 07:52:11;;;;;;;1.95;1.20;;;;;;;15.66;55.05;101650.75;5007375;28;20125;-45
2022/05/31 07:54:37;;;;;;;1.58;1.25;;;;;;;15.79;54.62;101654.88;5006863;28;20041;-44
2022/05/31 07:57:05;;;;;;;4.95;1.40;;;;;;;15.81;54.08;101650.06;5003605;28;20057;-45
2022/05/31 07:59:32;;;;;;;2.20;1.50;;;;;;;15.92;53.88;101651.72;5004485;28;20030;-47
2022/05/31 08:01:57;;;;;;;2.45;1.27;;;;;;;16.04;53.86;101648.00;5000647;28;20036;-45
2022/05/31 08:04:23;;;;;;;2.55;1.30;;;;;;;16.11;53.30;101654.78;4999757;28;20022;-45
2022/05/31 08:06:48;;;;;;;3.83;1.20;;;;;;;16.26;53.18;101649.47;5000697;28;20253;-47
2022/05/31 08:09:14;;;;;;;2.22;0.93;;;;;;;16.41;52.80;101646.00;5004552;28;20041;-46
2022/05/31 08:11:39;;;;;;;2.35;1.10;;;;;;;16.54;52.31;101642.81;5001561;28;20117;-45
2022/05/31 08:14:05;;;;;;;2.80;1.33;;;;;;;16.61;52.14;101647.97;4998814;28;20448;-45
2022/05/31 08:16:33;;;;;;;1.65;1.30;;;;;;;16.59;50.93;101653.66;5001116;28;20033;-46
2022/05/31 08:18:59;;;;;;;2.50;1.27;;;;;;;16.68;50.73;101642.31;5005936;28;20371;-46
2022/05/31 08:21:28;;;;;;;5.00;1.55;;;;;;;16.70;50.39;101651.00;5002906;28;20092;-44
2022/05/31 08:23:59;;;;;;;1.63;1.17;;;;;;;16.84;50.29;101642.09;5008725;28;20026;-47
2022/05/31 08:26:26;;;;;;;1.52;1.20;;;;;;;16.95;50.29;101640.22;5005329;28;20052;-47
2022/05/31 08:28:51;;;;;;;3.50;1.40;;;;;;;17.08;50.33;101638.88;5013514;28;20060;-45
2022/05/31 08:31:22;;;;;;;4.38;1.15;;;;;;;17.19;49.84;101635.09;5006134;28;20085;-46
2022/05/31 08:33:48;;;;;;;3.35;1.48;;;;;;;17.21;49.31;101639.16;5006722;28;20026;-45
2022/05/31 08:36:14;;;;;;;4.20;1.60;;;;;;;17.26;48.97;101635.66;5004196;28;20144;-45
2022/05/31 08:38:40;;;;;;;10.75;5.65;;;;;;;17.37;48.63;101644.56;5008214;28;20132;-45
2022/05/31 08:41:24;;;;;;;6.03;3.30;;;;;;;17.45;47.31;101642.13;5007980;28;20022;-45
2022/05/31 08:43:50;;;;;;;3.97;1.53;;;;;;;17.43;47.44;101646.22;5005735;28;20036;-47
2022/05/31 08:46:45;;;;;;;2.67;1.25;;;;;;;17.43;46.21;101641.59;5006362;28;20120;-46
2022/05/31 08:52:25;;;;;;;2.53;0.93;;;;;;;17.59;47.09;101631.53;5006804;28;20128;-45
2022/05/31 08:57:58;;;;;;;2.40;1.15;;;;;;;17.64;46.01;101620.72;5010210;28;20087;-45
2022/05/31 09:00:30;;;;;;;1.10;1.00;;;;;;;17.66;45.47;101623.13;5007798;28;20049;-45
2022/05/31 09:03:07;;;;;;;1.27;1.00;;;;;;;17.79;45.73;101628.03;5002621;28;20022;-46
2022/05/31 09:06:06;;;;;;;1.73;1.10;;;;;;;17.81;44.62;101631.28;5008173;28;20037;-44
2022/05/31 09:08:32;;;;;;;3.13;1.23;;;;;;;17.85;45.27;101629.63;5002140;28;20023;-45
2022/05/31 09:11:19;;;;;;;2.08;0.90;;;;;;;17.68;44.27;101623.72;5003522;28;20018;-45
2022/05/31 09:13:50;;;;;;;3.05;1.10;;;;;;;17.62;44.07;101622.88;5004363;28;20487;-45
2022/05/31 09:16:38;;;;;;;3.15;1.10;;;;;;;17.52;44.87;101622.88;5006034;28;20079;-46
2022/05/31 09:19:07;;;;;;;1.48;0.82;;;;;;;17.59;44.73;101620.69;5005119;28;20046;-46
2022/05/31 09:21:43;;;;;;;2.58;1.13;;;;;;;17.65;44.85;101626.94;5001604;28;20053;-45
2022/05/31 09:24:12;;;;;;;1.27;0.80;;;;;;;17.80;44.82;101625.03;5004478;28;20046;-45
2022/05/31 09:26:59;;;;;;;4.72;1.23;;;;;;;17.83;43.10;101620.16;5013324;28;20030;-45
2022/05/31 09:29:35;;;;;;;1.40;0.80;;;;;;;17.92;42.92;101622.00;5004454;28;20057;-45
2022/05/31 09:32:13;;;;;;;1.20;1.00;;;;;;;18.01;43.58;101620.38;5004749;28;20084;-45
2022/05/31 09:34:41;;;;;;;1.33;0.95;;;;;;;17.97;43.63;101616.59;5004073;28;20390;-44
2022/05/31 09:37:32;;;;;;;2.10;0.82;;;;;;;18.01;42.82;101612.22;4986653;22;1245053;-46
2022/05/31 09:40:07;;;;;;;1.52;0.90;;;;;;;18.01;42.77;101603.28;5021152;28;20587;-47
2022/05/31 09:42:36;;;;;;;;;;;;;;;18.07;42.61;101602.16;5026370;28;20406;-47
2022/05/31 09:45:16;;;;;;;1.80;0.90;;;;;;;18.29;42.25;101599.09;5025311;28;19921;-48
2022/05/31 09:47:42;;;;;;;3.47;1.00;;;;;;;18.53;42.69;101599.25;5022694;28;20036;-43
2022/05/31 09:50:08;;;;;;;0.80;0.80;;;;;;;18.76;42.72;101593.13;5026480;28;20280;-45
2022/05/31 09:52:47;;;;;;;2.70;0.77;;;;;;;18.91;41.31;101587.59;5026921;28;20378;-45
2022/05/31 09:58:08;;;;;;;1.27;1.08;;;;;;;18.62;40.01;101597.53;5025759;28;20449;-43
2022/05/31 10:00:56;;;;;;;3.00;0.82;;;;;;;18.55;39.74;101594.34;5026476;28;20056;-47
2022/05/31 10:03:33;;;;;;;1.38;0.77;;;;;;;18.48;39.80;101591.91;5016972;28;20034;-45
2022/05/31 10:06:20;;;;;;;2.85;0.90;;;;;;;18.53;40.02;101591.91;5022906;28;20039;-46
2022/05/31 10:08:47;;;;;;;1.55;1.13;;;;;;;18.73;40.88;101588.28;5023966;28;20565;-47
2022/05/31 10:11:20;;;;;;;1.65;0.90;;;;;;;18.87;40.36;101583.84;5022949;28;20068;-46
2022/05/31 10:14:02;;;;;;;1.98;0.65;;;;;;;18.88;38.23;101577.31;5020852;28;20376;-46
2022/05/31 10:16:33;;;;;;;3.22;1.40;;;;;;;18.90;38.62;101577.84;5024990;28;20034;-47
2022/05/31 10:19:05;;;;;;;2.90;1.83;;;;;;;18.98;37.22;101579.94;5022160;28;20490;-45
2022/05/31 10:21:49;;;;;;;1.95;1.33;;;;;;;19.02;37.42;101572.84;5021979;28;20454;-46
2022/05/31 10:24:18;;;;;;;2.92;1.08;;;;;;;18.83;38.17;101569.19;5017655;28;20810;-45
2022/05/31 10:26:45;;;;;;;2.53;1.17;;;;;;;18.94;38.78;101569.94;5019632;28;20056;-45
2022/05/31 10:29:16;;;;;;;2.58;1.25;;;;;;;18.92;38.72;101570.22;5023151;28;20108;-46
2022/05/31 10:31:48;;;;;;;2.60;1.05;;;;;;;18.94;38.57;101567.22;5025720;28;20040;-46
2022/05/31 10:34:38;;;;;;;2.65;1.00;;;;;;;18.92;38.75;101570.22;5023040;28;20040;-45
2022/05/31 10:37:07;;;;;;;2.58;1.20;;;;;;;18.97;39.11;101567.44;5022239;28;20494;-46
2022/05/31 10:39:38;;;;;;;2.65;0.98;;;;;;;19.04;38.47;101560.91;5023174;28;20040;-46
2022/05/31 10:42:11;;;;;;;0.98;0.73;;;;;;;19.17;38.36;101563.75;5022919;28;20025;-46
2022/05/31 10:44:51;;;;;;;2.38;0.70;;;;;;;19.32;37.34;101560.06;5018562;28;20513;-45
2022/05/31 10:47:19;;;;;;;2.35;0.98;;;;;;;19.37;38.17;101560.03;5015544;28;20119;-47
2022/05/31 10:49:46;;;;;;;3.58;0.80;;;;;;;19.52;37.82;101557.16;5022435;28;20021;-46
2022/05/31 10:52:14;;;;;;;2.70;0.93;;;;;;;19.78;37.87;101551.47;5021705;28;20029;-46
2022/05/31 10:54:49;;;;;;;2.08;0.70;;;;;;;20.05;38.08;101548.94;5023770;28;20155;-46
2022/05/31 10:58:06;;;;;;;2.08;0.90;;;;;;;20.15;38.32;101551.53;5019008;28;20040;-46
2022/05/31 11:00:59;;;;;;;2.22;0.77;;;;;;;20.01;37.99;101555.25;5022218;28;20491;-48
2022/05/31 11:03:45;;;;;;;1.77;1.00;;;;;;;19.93;38.36;101562.16;5021346;28;20059;-46
2022/05/31 11:06:27;;;;;;;1.50;0.82;;;;;;;19.86;38.43;101550.81;5007443;28;20068;-45
2022/05/31 11:12:22;;;;;;;2.17;1.02;;;;;;;19.63;37.96;101540.78;5018932;28;20391;-45
2022/05/31 11:15:02;;;;;;;3.33;1.05;;;;;;;19.67;38.01;101533.66;5018517;28;20036;-46
2022/05/31 11:17:55;;;;;;;1.08;0.80;;;;;;;19.72;37.66;101539.03;5018441;28;20041;-47
2022/05/31 11:20:27;;;;;;;2.10;1.02;;;;;;;19.83;37.45;101538.63;5024479;28;20497;-45
2022/05/31 11:23:16;;;;;;;2.55;0.90;;;;;;;20.04;37.71;101531.00;5022563;28;20025;-46
2022/05/31 11:26:01;;;;;;;2.75;0.73;;;;;;;20.18;37.82;101536.53;5016936;28;20124;-47
2022/05/31 11:28:41;;;;;;;1.05;0.60;;;;;;;20.20;37.23;101540.56;5019397;28;20112;-46
2022/05/31 11:31:28;;;;;;;3.17;0.98;;;;;;;20.23;37.34;101531.00;5022740;28;20255;-47
2022/05/31 11:34:17;;;;;;;1.60;0.90;;;;;;;20.09;36.64;101530.94;5016533;28;20025;-46
2022/05/31 11:37:07;;;;;;;2.88;0.85;;;;;;;19.99;35.71;101543.88;5020334;28;20116;-46
2022/05/31 11:40:07;;;;;;;2.55;0.90;;;;;;;19.99;36.65;101539.25;5020740;28;20075;-46
2022/05/31 11:42:48;;;;;;;1.08;0.98;;;;;;;19.96;36.75;101539.81;5018438;28;20083;-46
2022/05/31 11:45:42;;;;;;;2.05;0.77;;;;;;;20.14;35.52;101530.88;5016670;28;20033;-47
2022/05/31 11:48:42;;;;;;;0.77;0.60;;;;;;;20.35;35.80;101531.38;5010618;28;20570;-46
2022/05/31 11:51:13;;;;;;;1.35;0.82;;;;;;;20.38;35.89;101527.25;5017603;28;20041;-46
2022/05/31 11:53:59;;;;;;;1.67;0.90;;;;;;;20.19;35.50;101528.06;5020694;28;20032;-45
2022/05/31 11:56:44;;;;;;;2.15;0.93;;;;;;;20.19;35.86;101528.06;5016562;28;20098;-46
2022/05/31 11:59:19;;;;;;;5.60;1.00;;;;;;;20.19;36.72;101519.91;5017310;28;20033;-45
2022/05/31 12:01:55;;;;;;;2.22;0.90;;;;;;;20.11;36.27;101517.88;5016009;28;20033;-45
2022/05/31 12:04:37;;;;;;;0.95;0.85;;;;;;;20.16;36.81;101517.78;5020223;28;20452;-45